Time;durP1;ratioP1;P1;durP2;ratioP2;P2;SDS_P1;SDS_P2;PMS_P1;PMS_P2;Temp;Humidity;BMP_temperature;BMP_pressure;BME280_temperature;BME280_humidity;BME280_pressure;Samples;Min_cycle;Max_cycle;Signal;HPM_P1;HPM_P2
2023/05/22 00:02:06;;;;;;;13.10;7.10;;;;;;;10.84;71.87;101024.14;103943;277;38234;-71
2023/05/22 00:04:41;;;;;;;12.20;7.50;;;;;;;10.81;71.81;101024.41;103905;277;39122;-72
2023/05/22 00:07:15;;;;;;;9.10;6.90;;;;;;;10.79;72.11;101019.59;103938;277;38364;-69
2023/05/22 00:09:49;;;;;;;9.70;6.70;;;;;;;10.76;72.06;101019.66;103862;277;38518;-72
2023/05/22 00:12:23;;;;;;;10.80;6.80;;;;;;;10.72;72.11;101017.00;103931;277;38875;-72
2023/05/22 00:14:58;;;;;;;11.80;7.90;;;;;;;10.70;72.40;101017.91;103882;277;38496;-72
2023/05/22 00:17:33;;;;;;;15.60;7.60;;;;;;;10.66;72.34;101015.95;103871;277;38246;-71
2023/05/22 00:20:09;;;;;;;11.40;7.00;;;;;;;10.60;72.39;101016.27;103787;277;38959;-70
2023/05/22 00:22:47;;;;;;;12.20;6.80;;;;;;;10.57;72.26;101018.45;103870;277;39702;-72
2023/05/22 00:25:22;;;;;;;11.40;6.50;;;;;;;10.53;72.49;101013.85;103895;277;39047;-73
2023/05/22 00:27:56;;;;;;;11.40;6.50;;;;;;;10.50;72.66;101012.17;103891;277;38505;-70
2023/05/22 00:30:33;;;;;;;10.20;6.10;;;;;;;10.48;72.70;101010.67;103862;277;38220;-72
2023/05/22 00:33:06;;;;;;;11.30;6.80;;;;;;;10.44;72.79;101009.91;103907;266;38893;-72
2023/05/22 00:35:41;;;;;;;7.30;6.50;;;;;;;10.40;73.00;101013.52;103919;277;38479;-71
2023/05/22 00:38:33;;;;;;;11.70;6.50;;;;;;;10.37;73.04;101014.46;103868;277;38412;-70
2023/05/22 00:41:09;;;;;;;13.60;6.30;;;;;;;10.31;73.29;101010.23;103947;277;39404;-71
2023/05/22 00:43:49;;;;;;;9.80;5.90;;;;;;;10.30;73.27;101012.56;103940;277;39014;-72
2023/05/22 00:46:27;;;;;;;10.00;6.00;;;;;;;10.25;73.15;101009.17;103935;277;39440;-73
2023/05/22 00:49:03;;;;;;;8.60;5.80;;;;;;;10.22;73.46;101011.70;103830;277;38662;-69
2023/05/22 00:51:41;;;;;;;10.40;6.50;;;;;;;10.21;73.55;101012.42;103935;277;38956;-72
2023/05/22 00:54:20;;;;;;;7.40;5.60;;;;;;;10.15;73.61;101004.37;103902;277;38245;-73
2023/05/22 00:56:55;;;;;;;8.40;5.70;;;;;;;10.11;73.62;101006.04;103888;277;38268;-71
2023/05/22 00:59:38;;;;;;;8.10;5.80;;;;;;;10.08;73.73;101007.36;103892;277;38761;-73
2023/05/22 01:02:16;;;;;;;8.90;6.20;;;;;;;10.03;73.74;101005.73;103880;277;38236;-72
2023/05/22 01:04:50;;;;;;;8.20;6.40;;;;;;;10.03;73.81;101005.91;103840;277;39373;-72
2023/05/22 01:07:27;;;;;;;9.50;6.20;;;;;;;10.02;73.87;101008.55;103898;277;38242;-72
2023/05/22 01:10:03;;;;;;;8.60;5.80;;;;;;;9.97;73.89;101006.05;103872;277;38301;-72
2023/05/22 01:12:42;;;;;;;7.10;5.80;;;;;;;9.92;74.07;101008.96;103898;277;39565;-72
2023/05/22 01:15:30;;;;;;;8.20;5.50;;;;;;;9.89;74.20;101007.85;103880;277;39519;-72
2023/05/22 01:18:11;;;;;;;8.00;5.30;;;;;;;9.89;74.60;101007.14;103891;277;38641;-72
2023/05/22 01:20:50;;;;;;;9.30;6.10;;;;;;;9.87;74.44;101009.60;103863;277;40136;-69
2023/05/22 01:23:59;;;;;;;13.00;6.80;;;;;;;9.82;74.55;101010.95;103281;277;906929;-71
2023/05/22 01:26:57;;;;;;;10.30;5.70;;;;;;;9.75;74.60;101010.60;103655;279;38553;-72
2023/05/22 01:29:48;;;;;;;10.10;5.70;;;;;;;9.73;74.68;101009.97;103922;277;39668;-72
2023/05/22 01:32:25;;;;;;;9.40;5.90;;;;;;;9.71;74.74;101007.73;103939;277;38785;-71
2023/05/22 01:35:04;;;;;;;7.70;6.20;;;;;;;9.68;74.88;101007.48;103930;277;38464;-71
2023/05/22 01:37:36;;;;;;;;;;;;;;;9.63;74.93;101010.90;103979;277;38525;-71
2023/05/22 01:40:12;;;;;;;8.00;6.00;;;;;;;9.54;75.19;101011.65;103904;277;38694;-72
2023/05/22 01:42:51;;;;;;;9.10;5.90;;;;;;;9.50;75.36;101010.70;103584;279;175047;-72
2023/05/22 01:45:26;;;;;;;7.30;5.40;;;;;;;9.45;75.39;101008.02;103964;277;38870;-72
2023/05/22 01:47:59;;;;;;;6.60;5.50;;;;;;;9.43;75.36;101009.63;103992;277;39338;-72
2023/05/22 01:50:34;;;;;;;7.60;5.50;;;;;;;9.41;75.47;101008.45;103938;277;38404;-70
2023/05/22 01:53:17;;;;;;;8.80;5.70;;;;;;;9.39;75.54;101007.80;103959;277;38357;-72
2023/05/22 01:55:58;;;;;;;8.10;6.20;;;;;;;9.36;75.59;101006.48;103955;277;38524;-73
2023/05/22 01:58:37;;;;;;;8.60;5.40;;;;;;;9.32;75.66;101002.04;104007;277;38249;-72
2023/05/22 02:01:12;;;;;;;7.90;5.70;;;;;;;9.30;75.76;101006.45;103787;277;40245;-71
2023/05/22 02:03:50;;;;;;;7.50;5.20;;;;;;;9.27;75.72;101010.86;103965;277;38245;-72
2023/05/22 02:06:28;;;;;;;6.90;5.40;;;;;;;9.25;75.79;101007.41;103898;277;39647;-73
2023/05/22 02:09:05;;;;;;;9.80;5.70;;;;;;;9.23;75.90;101011.13;103957;277;40142;-71
2023/05/22 02:11:41;;;;;;;7.10;5.40;;;;;;;9.19;76.06;101013.12;103953;277;38572;-71
2023/05/22 02:14:16;;;;;;;6.30;5.10;;;;;;;9.18;76.20;101012.63;103964;265;38311;-71
2023/05/22 02:16:51;;;;;;;9.20;5.40;;;;;;;9.14;76.18;101014.63;103996;277;38505;-72
2023/05/22 02:19:25;;;;;;;6.50;5.20;;;;;;;9.10;76.36;101014.73;103994;277;38578;-72
2023/05/22 02:21:59;;;;;;;9.10;6.10;;;;;;;9.08;76.49;101010.76;104004;277;38451;-71
2023/05/22 02:24:35;;;;;;;7.40;5.30;;;;;;;9.06;76.49;101010.80;103816;278;38809;-71
2023/05/22 02:27:09;;;;;;;8.60;6.10;;;;;;;9.04;76.58;101012.77;103870;277;174901;-69
2023/05/22 02:29:47;;;;;;;9.50;6.00;;;;;;;9.01;76.80;101013.17;103963;277;38435;-70
2023/05/22 02:32:22;;;;;;;8.20;5.10;;;;;;;8.98;76.89;101009.42;103993;277;38489;-72
2023/05/22 02:34:57;;;;;;;8.70;5.30;;;;;;;8.97;77.00;101011.69;103954;277;38522;-72
2023/05/22 02:37:36;;;;;;;8.30;5.60;;;;;;;8.96;77.05;101006.67;103970;277;40359;-72
2023/05/22 02:40:15;;;;;;;7.70;5.70;;;;;;;8.96;77.06;101006.34;103916;277;38796;-72
2023/05/22 02:42:51;;;;;;;7.90;5.50;;;;;;;8.95;77.30;101005.98;104007;277;38474;-71
2023/05/22 02:45:25;;;;;;;8.30;5.40;;;;;;;8.96;77.25;101004.59;103935;277;39107;-71
2023/05/22 02:48:02;;;;;;;8.20;5.50;;;;;;;8.93;77.32;101004.80;103987;277;38468;-72
2023/05/22 02:50:36;;;;;;;6.80;4.50;;;;;;;8.93;77.50;101001.33;104026;277;38572;-72
2023/05/22 02:53:19;;;;;;;10.40;5.30;;;;;;;8.94;77.51;101000.63;103976;277;38488;-70
2023/05/22 02:55:57;;;;;;;7.10;5.60;;;;;;;8.95;77.59;100995.38;103921;277;38355;-70
2023/05/22 02:58:34;;;;;;;11.60;5.70;;;;;;;8.95;77.67;100990.33;104020;277;38517;-71
2023/05/22 03:01:12;;;;;;;9.00;5.00;;;;;;;8.93;77.78;100991.07;103966;277;39449;-71
2023/05/22 03:03:49;;;;;;;7.90;5.10;;;;;;;8.91;77.83;100989.55;103797;278;38679;-72
2023/05/22 03:06:31;;;;;;;6.10;4.50;;;;;;;8.91;78.10;100987.80;103977;277;38229;-71
2023/05/22 03:09:05;;;;;;;10.70;5.00;;;;;;;8.95;78.27;100987.89;103992;277;38383;-71
2023/05/22 03:11:39;;;;;;;8.10;4.80;;;;;;;8.99;78.33;100989.03;104024;266;38583;-71
2023/05/22 03:14:13;;;;;;;6.50;5.20;;;;;;;9.03;78.51;100988.60;103962;277;38406;-69
2023/05/22 03:16:49;;;;;;;8.50;5.60;;;;;;;9.05;78.61;100987.85;103986;277;38454;-71
2023/05/22 03:19:24;;;;;;;9.60;4.60;;;;;;;9.07;78.57;100987.81;103954;277;38295;-71
2023/05/22 03:21:59;;;;;;;7.60;4.60;;;;;;;9.12;78.80;100989.11;103956;277;39622;-72
2023/05/22 03:24:36;;;;;;;10.10;4.90;;;;;;;9.18;78.82;100986.35;103814;277;38677;-71
2023/05/22 03:27:13;;;;;;;7.40;5.40;;;;;;;9.25;79.04;100988.11;103715;277;39661;-71
2023/05/22 03:29:48;;;;;;;7.80;5.10;;;;;;;9.32;79.10;100989.88;103959;277;38408;-72
2023/05/22 03:32:23;;;;;;;6.80;5.70;;;;;;;9.40;79.17;100991.94;103983;277;38340;-72
2023/05/22 03:35:03;;;;;;;10.50;6.00;;;;;;;9.49;79.31;100993.98;103937;277;39645;-71
2023/05/22 03:37:44;;;;;;;10.50;4.90;;;;;;;9.61;79.50;100987.95;103713;277;39682;-69
2023/05/22 03:40:20;;;;;;;11.50;5.80;;;;;;;10.12;80.51;100989.11;103958;277;38807;-71
2023/05/22 03:42:56;;;;;;;10.30;6.10;;;;;;;10.96;81.18;100989.06;103943;277;39397;-72
2023/05/22 03:45:33;;;;;;;11.10;5.70;;;;;;;11.84;81.07;100984.54;103951;277;39012;-73
2023/05/22 03:48:09;;;;;;;12.90;6.00;;;;;;;12.75;79.83;100978.18;103981;277;38478;-72
2023/05/22 03:50:48;;;;;;;14.30;5.80;;;;;;;13.57;77.27;100983.61;103914;277;39401;-72
2023/05/22 03:53:22;;;;;;;11.80;6.50;;;;;;;14.34;75.19;100983.16;103337;266;701228;-74
2023/05/22 03:56:04;;;;;;;14.20;6.70;;;;;;;15.19;73.03;100979.14;103948;277;38609;-73
2023/05/22 03:58:38;;;;;;;23.70;6.50;;;;;;;16.00;70.25;100982.21;103826;277;174998;-70
2023/05/22 04:01:13;;;;;;;14.70;6.80;;;;;;;16.72;67.06;100981.09;103941;277;38463;-70
2023/05/22 04:03:51;;;;;;;13.10;6.70;;;;;;;17.22;64.50;100981.22;103907;277;39468;-72
2023/05/22 04:06:27;;;;;;;11.10;6.30;;;;;;;17.56;61.92;100981.55;103732;277;38482;-73
2023/05/22 04:09:01;;;;;;;12.70;6.30;;;;;;;17.86;60.51;100977.75;103742;277;38255;-73
2023/05/22 04:11:35;;;;;;;11.50;6.60;;;;;;;18.00;58.69;100977.27;103951;277;38245;-72
2023/05/22 04:14:10;;;;;;;11.20;7.50;;;;;;;17.84;58.06;100972.23;103787;278;38231;-72
2023/05/22 04:16:44;;;;;;;18.50;8.30;;;;;;;17.52;58.03;100971.54;103898;277;38214;-73
2023/05/22 04:19:22;;;;;;;22.20;8.90;;;;;;;17.19;58.14;100965.30;103878;277;39074;-72
2023/05/22 04:21:57;;;;;;;16.20;8.60;;;;;;;16.85;58.86;100967.39;103885;277;38260;-70
2023/05/22 04:24:32;;;;;;;20.90;9.50;;;;;;;16.57;59.07;100961.65;103882;277;38349;-70
2023/05/22 04:27:11;;;;;;;16.10;9.60;;;;;;;16.43;59.58;100961.84;103876;277;38213;-71
2023/05/22 04:29:45;;;;;;;15.90;9.10;;;;;;;16.36;59.60;100956.27;103755;277;172229;-70
2023/05/22 04:32:22;;;;;;;13.60;8.70;;;;;;;16.26;59.25;100953.77;103916;277;39738;-71
2023/05/22 04:35:00;;;;;;;11.40;8.40;;;;;;;16.18;59.67;100958.41;103913;277;38940;-72
2023/05/22 04:37:41;;;;;;;14.60;8.60;;;;;;;16.11;59.66;100960.36;103934;277;39552;-72
2023/05/22 04:40:18;;;;;;;12.10;8.20;;;;;;;16.08;59.72;100962.84;103803;277;39396;-73
2023/05/22 04:42:53;;;;;;;14.10;8.00;;;;;;;16.02;59.69;100964.16;103923;277;38868;-72
2023/05/22 04:45:28;;;;;;;15.40;8.30;;;;;;;15.96;59.82;100958.66;103941;277;38500;-72
2023/05/22 04:48:03;;;;;;;15.00;9.30;;;;;;;15.96;60.16;100962.89;103937;277;38227;-71
2023/05/22 04:50:38;;;;;;;15.40;8.20;;;;;;;16.03;60.36;100962.41;103769;277;39393;-71
2023/05/22 04:53:21;;;;;;;15.30;8.50;;;;;;;16.26;60.51;100959.08;103674;277;38201;-74
2023/05/22 04:55:58;;;;;;;12.70;7.20;;;;;;;17.06;61.42;100956.17;103943;277;39588;-73
2023/05/22 04:58:36;;;;;;;13.80;8.60;;;;;;;18.29;60.32;100957.86;103275;277;911031;-73
2023/05/22 05:01:13;;;;;;;14.30;8.30;;;;;;;19.47;57.96;100952.90;103933;277;38263;-71
2023/05/22 05:03:47;;;;;;;17.30;9.30;;;;;;;20.66;55.13;100947.98;103849;277;38246;-73
2023/05/22 05:06:26;;;;;;;12.50;8.70;;;;;;;21.69;51.42;100943.98;103877;277;38788;-72
2023/05/22 05:09:01;;;;;;;9.90;7.60;;;;;;;22.55;49.00;100948.41;103886;277;38409;-74
2023/05/22 05:11:37;;;;;;;9.90;7.10;;;;;;;23.12;45.87;100948.45;103895;277;38247;-72
2023/05/22 05:14:14;;;;;;;15.20;6.90;;;;;;;23.70;44.83;100949.58;103889;277;38388;-74
2023/05/22 05:16:52;;;;;;;14.00;7.50;;;;;;;24.38;43.46;100950.55;103939;277;38726;-72
2023/05/22 05:19:27;;;;;;;9.80;6.90;;;;;;;25.06;41.22;100949.14;103933;277;38820;-73
2023/05/22 05:22:02;;;;;;;11.20;6.70;;;;;;;25.46;39.52;100953.41;103917;277;38259;-73
2023/05/22 05:24:36;;;;;;;8.90;5.40;;;;;;;25.83;38.47;100954.63;103937;277;38508;-73
2023/05/22 05:27:12;;;;;;;12.10;6.20;;;;;;;26.35;37.75;100961.91;103969;277;38233;-74
2023/05/22 05:29:46;;;;;;;15.20;5.60;;;;;;;26.96;36.99;100956.91;103918;277;39593;-74
2023/05/22 05:32:20;;;;;;;9.60;6.00;;;;;;;27.21;34.75;100954.47;103946;277;38522;-74
2023/05/22 05:34:55;;;;;;;9.10;5.20;;;;;;;27.21;35.40;100952.38;103730;277;38257;-72
2023/05/22 05:37:33;;;;;;;11.10;5.80;;;;;;;27.38;33.79;100951.75;103961;277;38777;-73
2023/05/22 05:40:17;;;;;;;8.90;5.00;;;;;;;27.45;33.86;100948.16;103958;277;38248;-73
2023/05/22 05:42:56;;;;;;;11.80;5.20;;;;;;;27.74;33.23;100954.19;103817;278;38684;-74
2023/05/22 05:45:31;;;;;;;;;;;;;;;27.95;32.42;100954.65;103953;277;39735;-74
2023/05/22 05:48:08;;;;;;;8.00;5.10;;;;;;;27.72;31.73;100955.73;103953;277;39456;-72
2023/05/22 05:50:43;;;;;;;8.20;4.90;;;;;;;27.28;31.98;100959.02;103954;277;38602;-73
2023/05/22 05:53:20;;;;;;;8.70;4.70;;;;;;;27.08;32.41;100961.52;103905;277;38378;-73
2023/05/22 05:56:02;;;;;;;11.70;5.10;;;;;;;26.85;32.19;100957.30;103698;277;171597;-73
2023/05/22 05:58:37;;;;;;;;;;;;;;;26.84;32.78;100958.11;103961;277;39371;-73
2023/05/22 06:01:17;;;;;;;11.90;5.70;;;;;;;27.12;33.55;100953.95;103932;277;38222;-73
2023/05/22 06:03:58;;;;;;;19.60;6.20;;;;;;;27.68;32.48;100948.73;103980;277;38282;-73
2023/05/22 06:06:35;;;;;;;10.00;5.00;;;;;;;27.81;32.39;100947.98;103945;277;38551;-75
2023/05/22 06:09:11;;;;;;;9.40;5.10;;;;;;;28.36;31.23;100946.63;103942;277;38232;-71
2023/05/22 06:11:49;;;;;;;9.80;4.70;;;;;;;28.99;30.21;100941.10;103920;277;38410;-74
2023/05/22 06:14:26;;;;;;;8.40;4.70;;;;;;;29.50;29.69;100939.30;103787;275;187375;-74
2023/05/22 06:17:00;;;;;;;7.50;4.80;;;;;;;29.85;28.73;100939.09;103912;277;38275;-74
2023/05/22 06:19:37;;;;;;;12.10;5.20;;;;;;;30.27;28.06;100944.33;103901;277;39950;-75
2023/05/22 06:22:14;;;;;;;7.90;4.50;;;;;;;30.67;27.46;100936.69;103901;277;39461;-73
2023/05/22 06:24:53;;;;;;;9.60;4.60;;;;;;;30.99;27.12;100938.33;103915;277;38554;-75
2023/05/22 06:27:31;;;;;;;8.80;4.50;;;;;;;31.66;27.29;100931.50;103970;277;38369;-73
2023/05/22 06:30:11;;;;;;;6.30;4.30;;;;;;;32.25;25.61;100929.63;103818;278;39253;-74
2023/05/22 06:32:51;;;;;;;11.70;4.40;;;;;;;32.73;25.98;100927.58;104024;277;39714;-74
2023/05/22 06:35:30;;;;;;;9.50;4.60;;;;;;;33.02;25.17;100922.77;103965;277;38489;-74
2023/05/22 06:38:04;;;;;;;6.90;4.30;;;;;;;33.33;24.93;100924.02;103975;277;38279;-73
2023/05/22 06:40:38;;;;;;;7.20;4.90;;;;;;;33.53;24.15;100922.98;103936;277;38755;-74
2023/05/22 06:43:13;;;;;;;8.60;5.20;;;;;;;33.51;23.56;100922.17;103719;277;38261;-76
2023/05/22 06:45:48;;;;;;;8.70;4.60;;;;;;;33.55;23.51;100920.80;103987;277;39562;-76
2023/05/22 06:48:22;;;;;;;7.90;4.20;;;;;;;33.61;23.45;100926.48;103980;277;38525;-74
2023/05/22 06:50:57;;;;;;;8.90;4.80;;;;;;;33.66;22.90;100924.40;103932;277;39685;-74
2023/05/22 06:53:31;;;;;;;9.00;4.80;;;;;;;33.81;22.63;100922.30;103959;277;39604;-74
2023/05/22 06:56:07;;;;;;;8.40;4.30;;;;;;;33.84;22.56;100922.78;103980;277;39671;-75
2023/05/22 06:58:42;;;;;;;10.40;4.40;;;;;;;34.20;23.22;100920.35;103953;277;38988;-75
2023/05/22 07:01:18;;;;;;;7.20;4.90;;;;;;;34.48;23.22;100916.88;103931;277;38291;-75
2023/05/22 07:03:55;;;;;;;7.80;4.70;;;;;;;34.62;22.34;100910.46;103964;277;38212;-74
2023/05/22 07:06:32;;;;;;;7.90;4.50;;;;;;;34.60;21.53;100911.77;103926;277;39507;-75
2023/05/22 07:09:07;;;;;;;10.70;4.40;;;;;;;34.64;22.69;100908.44;103969;277;40128;-74
2023/05/22 07:11:42;;;;;;;8.40;4.00;;;;;;;34.59;21.12;100916.13;103963;277;39710;-75
2023/05/22 07:14:19;;;;;;;8.80;4.20;;;;;;;34.34;21.33;100911.48;103928;277;39690;-74
2023/05/22 07:16:53;;;;;;;9.30;4.40;;;;;;;34.31;21.72;100909.70;103945;277;38413;-73
2023/05/22 07:19:30;;;;;;;8.30;4.00;;;;;;;34.47;21.09;100908.96;103324;277;884978;-75
2023/05/22 07:22:06;;;;;;;9.40;4.10;;;;;;;34.50;20.71;100908.84;103977;277;39946;-74
2023/05/22 07:24:41;;;;;;;9.90;4.20;;;;;;;34.83;20.06;100904.14;103948;277;38298;-76
2023/05/22 07:27:15;;;;;;;7.30;4.30;;;;;;;35.07;20.33;100903.36;103970;277;38235;-76
2023/05/22 07:29:51;;;;;;;12.90;4.70;;;;;;;35.35;20.01;100904.78;103894;277;38923;-77
2023/05/22 07:32:25;;;;;;;7.90;4.20;;;;;;;35.22;19.65;100902.30;103947;277;39511;-77
2023/05/22 07:34:59;;;;;;;7.40;3.30;;;;;;;35.08;19.40;100905.37;103909;277;38253;-73
2023/05/22 07:37:38;;;;;;;7.90;3.10;;;;;;;35.22;19.00;100903.23;103946;277;38479;-74
2023/05/22 07:40:15;;;;;;;6.70;2.80;;;;;;;35.37;18.66;100900.26;103895;277;38595;-74
2023/05/22 07:42:59;;;;;;;5.60;2.80;;;;;;;35.53;17.73;100897.27;103981;277;38263;-75
2023/05/22 07:45:35;;;;;;;6.30;3.20;;;;;;;35.25;18.50;100896.29;103929;277;38365;-73
2023/05/22 07:48:12;;;;;;;5.70;2.70;;;;;;;35.23;18.39;100898.03;103945;277;39868;-76
2023/05/22 07:50:47;;;;;;;5.40;2.10;;;;;;;35.30;17.64;100895.06;103813;277;38764;-74
2023/05/22 07:53:25;;;;;;;4.80;2.50;;;;;;;35.19;17.60;100893.16;103979;277;38249;-76
2023/05/22 07:56:02;;;;;;;2.80;2.50;;;;;;;34.85;17.75;100888.69;103952;277;38281;-74
2023/05/22 07:58:35;;;;;;;;;;;;;;;34.40;18.69;100889.29;103853;277;173664;-75
2023/05/22 08:01:11;;;;;;;4.10;2.00;;;;;;;34.02;18.60;100887.98;103943;277;38267;-75
2023/05/22 08:03:45;;;;;;;3.00;2.40;;;;;;;33.54;18.46;100884.45;103901;277;40127;-75
2023/05/22 08:06:23;;;;;;;4.50;2.10;;;;;;;33.12;18.94;100889.67;103927;277;38500;-76
2023/05/22 08:08:58;;;;;;;2.30;1.90;;;;;;;33.09;18.77;100889.65;103886;277;38554;-74
2023/05/22 08:11:33;;;;;;;2.80;1.50;;;;;;;33.23;18.76;100891.34;103917;277;38243;-74
2023/05/22 08:14:07;;;;;;;4.00;1.50;;;;;;;33.55;18.38;100888.27;103892;277;38402;-75
2023/05/22 08:16:44;;;;;;;3.50;1.80;;;;;;;33.79;18.26;100887.24;103911;277;39836;-75
2023/05/22 08:19:21;;;;;;;4.20;2.20;;;;;;;34.24;17.72;100890.95;103851;277;38909;-73
2023/05/22 08:21:56;;;;;;;4.20;2.10;;;;;;;34.41;18.08;100891.59;103902;277;39759;-76
2023/05/22 08:24:33;;;;;;;3.20;2.10;;;;;;;34.79;18.06;100887.78;103950;277;39350;-77
2023/05/22 08:27:09;;;;;;;4.50;1.90;;;;;;;35.22;17.25;100876.44;103897;277;39648;-75
2023/05/22 08:29:44;;;;;;;3.90;2.20;;;;;;;35.54;17.45;100874.75;103804;277;173991;-74
2023/05/22 08:32:19;;;;;;;5.30;2.20;;;;;;;35.89;17.36;100874.02;103972;277;38404;-73
2023/05/22 08:34:54;;;;;;;3.00;2.30;;;;;;;36.22;16.60;100877.94;103912;277;39793;-75
2023/05/22 08:37:28;;;;;;;4.70;2.10;;;;;;;36.55;16.25;100880.64;103904;277;38295;-73
2023/05/22 08:40:03;;;;;;;3.90;1.90;;;;;;;36.33;16.28;100878.11;103877;277;40001;-74
2023/05/22 08:42:37;;;;;;;5.40;2.30;;;;;;;36.03;15.93;100875.46;103747;277;39431;-74
2023/05/22 08:45:15;;;;;;;5.20;2.00;;;;;;;35.93;16.71;100873.01;103835;277;39744;-75
2023/05/22 08:47:53;;;;;;;1.90;1.70;;;;;;;36.09;16.67;100876.34;103917;277;39425;-76
2023/05/22 08:50:27;;;;;;;2.90;1.30;;;;;;;36.16;16.33;100874.02;103948;277;38721;-73
2023/05/22 08:53:04;;;;;;;4.20;1.90;;;;;;;36.27;16.61;100871.67;103920;277;38235;-74
2023/05/22 08:55:38;;;;;;;3.10;1.70;;;;;;;36.40;15.69;100875.28;103871;277;38765;-79
2023/05/22 08:58:14;;;;;;;4.00;1.90;;;;;;;36.33;15.64;100866.83;103900;277;38623;-77
2023/05/22 09:00:50;;;;;;;4.20;1.60;;;;;;;36.25;16.79;100865.89;103887;277;38518;-78
2023/05/22 09:03:24;;;;;;;1.90;1.50;;;;;;;35.50;16.45;100865.98;103753;277;39450;-74
2023/05/22 09:06:01;;;;;;;1.50;1.40;;;;;;;34.54;17.15;100869.48;103717;277;38857;-75
2023/05/22 09:08:35;;;;;;;3.90;2.20;;;;;;;33.61;17.42;100864.98;103963;277;38430;-74
2023/05/22 09:11:12;;;;;;;2.90;1.70;;;;;;;32.97;17.80;100865.48;103737;277;38393;-74
2023/05/22 09:13:50;;;;;;;3.80;1.70;;;;;;;32.73;18.22;100863.13;103925;277;38236;-74
2023/05/22 09:16:31;;;;;;;3.60;2.20;;;;;;;32.55;18.27;100861.12;103735;277;38916;-74
2023/05/22 09:19:10;;;;;;;4.50;2.10;;;;;;;32.34;18.79;100854.70;103876;277;39455;-76
2023/05/22 09:21:47;;;;;;;5.00;2.30;;;;;;;31.88;18.92;100856.13;103900;277;39426;-73
2023/05/22 09:24:26;;;;;;;3.70;1.90;;;;;;;31.22;19.09;100850.03;103909;277;39897;-74
2023/05/22 09:27:02;;;;;;;5.70;2.50;;;;;;;30.57;20.00;100853.38;103916;277;38912;-75
2023/05/22 09:29:49;;;;;;;4.00;2.60;;;;;;;30.11;21.25;100855.63;103885;277;39525;-73
2023/05/22 09:32:25;;;;;;;5.10;2.30;;;;;;;29.77;21.42;100852.42;103958;277;38908;-73
2023/05/22 09:35:06;;;;;;;4.20;2.20;;;;;;;29.50;21.49;100851.80;103946;277;38474;-74
2023/05/22 09:37:41;;;;;;;3.30;2.50;;;;;;;29.04;21.75;100848.92;103838;277;38831;-75
2023/05/22 09:40:18;;;;;;;2.30;2.00;;;;;;;28.61;22.99;100847.41;103793;277;41083;-72
2023/05/22 09:42:55;;;;;;;4.00;2.20;;;;;;;28.36;25.25;100842.92;103838;277;39917;-73
2023/05/22 09:45:29;;;;;;;2.80;2.00;;;;;;;28.12;24.90;100841.05;103924;277;39710;-73
2023/05/22 09:48:07;;;;;;;7.20;2.50;;;;;;;28.09;24.33;100842.86;103900;277;38789;-75
2023/05/22 09:50:42;;;;;;;4.30;2.20;;;;;;;28.00;23.76;100837.73;103766;279;38238;-75
2023/05/22 09:53:19;;;;;;;3.40;1.90;;;;;;;27.87;24.16;100840.63;103874;277;38286;-75
2023/05/22 09:55:55;;;;;;;4.60;1.90;;;;;;;27.82;24.86;100839.38;103882;277;38462;-73
2023/05/22 09:58:30;;;;;;;4.50;2.10;;;;;;;27.68;24.34;100839.17;103863;277;38252;-74
2023/05/22 10:01:09;;;;;;;4.30;2.20;;;;;;;27.58;25.08;100840.60;103922;277;39750;-73
2023/05/22 10:03:44;;;;;;;4.20;1.90;;;;;;;27.56;25.79;100838.98;103892;277;39066;-72
2023/05/22 10:06:18;;;;;;;3.50;2.00;;;;;;;27.60;24.57;100839.14;103910;277;38375;-74
2023/05/22 10:08:57;;;;;;;2.80;1.90;;;;;;;27.56;24.58;100836.66;103953;277;38724;-75
2023/05/22 10:11:31;;;;;;;5.50;2.20;;;;;;;27.47;24.26;100837.77;103957;277;38516;-74
2023/05/22 10:14:07;;;;;;;4.50;2.10;;;;;;;27.34;24.21;100836.93;103976;277;38228;-72
2023/05/22 10:16:44;;;;;;;5.20;2.10;;;;;;;27.29;24.40;100834.77;103967;277;39646;-74
2023/05/22 10:19:18;;;;;;;5.10;2.20;;;;;;;27.14;24.67;100832.66;103970;277;38463;-75
2023/05/22 10:21:54;;;;;;;9.00;2.50;;;;;;;27.08;25.47;100829.90;103715;277;176781;-74
2023/05/22 10:24:30;;;;;;;4.10;2.30;;;;;;;26.99;25.59;100830.21;103988;277;39417;-76
2023/05/22 10:27:08;;;;;;;3.60;2.10;;;;;;;26.98;26.28;100825.10;104018;277;39935;-72
2023/05/22 10:29:47;;;;;;;7.20;2.40;;;;;;;26.92;25.52;100825.91;103860;277;174347;-73
2023/05/22 10:32:33;;;;;;;4.20;1.90;;;;;;;26.82;25.48;100822.85;103975;277;38260;-72
2023/05/22 10:35:12;;;;;;;5.20;2.10;;;;;;;26.84;25.91;100821.16;103945;265;39953;-74
2023/05/22 10:37:51;;;;;;;3.20;2.00;;;;;;;26.92;24.94;100821.64;103951;277;38230;-72
2023/05/22 10:40:31;;;;;;;3.70;2.10;;;;;;;26.93;25.59;100818.30;103945;277;38796;-74
2023/05/22 10:43:07;;;;;;;5.30;2.00;;;;;;;27.03;25.47;100816.04;103725;279;38700;-73
2023/05/22 10:45:44;;;;;;;3.30;2.40;;;;;;;27.18;25.63;100816.02;103925;277;39401;-74
2023/05/22 10:48:25;;;;;;;2.30;2.00;;;;;;;27.48;25.64;100812.20;103364;277;893484;-74
2023/05/22 10:51:03;;;;;;;2.80;2.00;;;;;;;27.60;25.68;100805.83;103982;277;39979;-74
2023/05/22 10:53:41;;;;;;;3.00;1.90;;;;;;;27.58;25.10;100811.20;103765;277;39969;-73
2023/05/22 10:56:17;;;;;;;3.40;1.90;;;;;;;27.60;24.66;100809.04;103975;277;38292;-73
2023/05/22 10:59:06;;;;;;;2.90;2.20;;;;;;;27.68;24.52;100805.00;103977;277;38261;-73
2023/05/22 11:01:43;;;;;;;3.30;1.90;;;;;;;27.70;24.69;100797.74;103992;277;39950;-74
2023/05/22 11:04:21;;;;;;;5.00;2.00;;;;;;;27.62;24.05;100795.87;103974;277;38255;-71
2023/05/22 11:07:09;;;;;;;8.50;2.40;;;;;;;27.73;24.04;100799.86;103981;277;38247;-79
2023/05/22 11:09:46;;;;;;;2.60;2.10;;;;;;;27.69;24.46;100793.54;104056;277;38359;-79
2023/05/22 11:12:27;;;;;;;2.50;2.10;;;;;;;27.60;24.67;100791.65;103815;277;39701;-76
2023/05/22 11:15:06;;;;;;;3.50;2.00;;;;;;;27.53;24.48;100790.52;103817;277;38525;-72
2023/05/22 11:17:50;;;;;;;2.60;2.00;;;;;;;27.57;24.98;100783.51;103935;277;38540;-78
2023/05/22 11:20:27;;;;;;;2.70;2.10;;;;;;;27.48;24.95;100784.21;103954;277;40302;-78
2023/05/22 11:23:08;;;;;;;4.60;1.90;;;;;;;27.31;24.43;100779.26;103919;277;39236;-77
2023/05/22 11:25:43;;;;;;;4.50;1.80;;;;;;;27.15;23.64;100777.94;103999;277;38251;-76
2023/05/22 11:28:21;;;;;;;2.70;2.20;;;;;;;26.96;23.84;100770.79;103977;277;38288;-76
2023/05/22 11:30:59;;;;;;;3.80;1.90;;;;;;;26.83;24.43;100770.44;103944;277;38270;-76
2023/05/22 11:33:38;;;;;;;3.30;2.30;;;;;;;26.82;24.80;100770.80;103740;277;38298;-77
2023/05/22 11:36:12;;;;;;;2.30;2.10;;;;;;;26.75;24.32;100774.29;103939;277;38270;-76
2023/05/22 11:38:50;;;;;;;2.30;1.80;;;;;;;26.71;24.43;100771.58;103980;277;39166;-77
2023/05/22 11:41:27;;;;;;;3.90;2.40;;;;;;;26.76;24.24;100771.14;103939;277;38428;-76
2023/05/22 11:44:03;;;;;;;4.10;2.30;;;;;;;26.68;24.26;100769.96;103940;277;38253;-75
2023/05/22 11:46:40;;;;;;;3.80;1.90;;;;;;;26.61;24.59;100768.89;103976;277;38486;-75
2023/05/22 11:49:24;;;;;;;4.20;1.80;;;;;;;26.60;24.50;100768.25;103927;277;38397;-77
2023/05/22 11:52:03;;;;;;;4.40;2.20;;;;;;;26.56;24.24;100770.67;103437;265;696336;-76
2023/05/22 11:54:40;;;;;;;3.20;2.00;;;;;;;26.45;23.86;100765.42;103903;277;38804;-76
2023/05/22 11:57:20;;;;;;;3.00;2.00;;;;;;;26.34;24.33;100768.13;103921;277;39218;-76
2023/05/22 11:59:59;;;;;;;3.50;2.20;;;;;;;26.36;24.64;100761.82;103920;277;38253;-74
2023/05/22 12:02:34;;;;;;;2.80;2.20;;;;;;;26.39;24.04;100761.74;103732;279;38927;-78
2023/05/22 12:05:10;;;;;;;2.40;2.10;;;;;;;26.23;24.54;100755.97;103929;277;38434;-78
2023/05/22 12:07:45;;;;;;;3.50;2.10;;;;;;;26.18;24.54;100750.20;103727;279;38291;-76
2023/05/22 12:10:20;;;;;;;3.50;2.00;;;;;;;26.22;25.06;100750.15;103834;277;39395;-76